createdAt,value
2018-08-24T00:00:18.383Z,19.03
2018-08-24T00:02:47.045Z,17.90
2018-08-24T00:05:15.719Z,17.77
2018-08-24T00:07:44.402Z,19.33
2018-08-24T00:10:13.039Z,17.93
2018-08-24T00:12:41.698Z,20.83
2018-08-24T00:15:10.328Z,19.73
2018-08-24T00:17:39.028Z,19.40
2018-08-24T00:20:07.695Z,18.20
2018-08-24T00:22:36.371Z,18.07
2018-08-24T00:25:05.135Z,18.77
2018-08-24T00:27:33.781Z,19.67
2018-08-24T00:30:02.423Z,20.40
2018-08-24T00:32:31.095Z,19.03
2018-08-24T00:34:59.755Z,19.73
2018-08-24T00:37:28.409Z,19.70
2018-08-24T00:39:57.063Z,19.57
2018-08-24T00:42:25.725Z,18.27
2018-08-24T00:44:54.376Z,19.30
2018-08-24T00:47:23.036Z,18.07
2018-08-24T00:49:51.678Z,17.70
2018-08-24T00:52:20.580Z,18.50
2018-08-24T00:54:49.263Z,18.07
2018-08-24T00:57:17.918Z,17.47
2018-08-24T00:59:46.588Z,17.93
2018-08-24T01:02:15.265Z,18.63
2018-08-24T01:04:43.914Z,18.83
2018-08-24T01:07:13.827Z,18.80
2018-08-24T01:09:42.934Z,19.07
2018-08-24T01:12:13.706Z,19.37
2018-08-24T01:14:43.712Z,19.57
2018-08-24T01:17:17.571Z,19.00
2018-08-24T01:19:46.733Z,19.57
2018-08-24T01:22:15.762Z,19.03
2018-08-24T01:24:44.415Z,18.87
2018-08-24T01:27:13.038Z,20.27
2018-08-24T01:29:42.925Z,22.60
2018-08-24T01:32:11.606Z,22.10
2018-08-24T01:34:40.258Z,22.27
2018-08-24T01:37:08.902Z,22.30
2018-08-24T01:39:37.562Z,20.30
2018-08-24T01:42:06.228Z,19.70
2018-08-24T01:44:34.876Z,18.80
2018-08-24T01:47:03.548Z,19.13
2018-08-24T01:49:32.200Z,18.87
2018-08-24T01:52:00.836Z,20.07
2018-08-24T01:54:29.487Z,21.23
2018-08-24T01:56:58.177Z,19.43
2018-08-24T01:59:26.813Z,21.10
2018-08-24T02:01:55.452Z,21.10
2018-08-24T02:04:24.104Z,19.20
2018-08-24T02:06:52.737Z,20.63
2018-08-24T02:09:23.033Z,20.50
2018-08-24T02:11:52.088Z,19.90
2018-08-24T02:14:26.209Z,21.80
2018-08-24T02:16:54.811Z,22.70
2018-08-24T02:19:28.708Z,22.40
2018-08-24T02:22:02.590Z,22.00
2018-08-24T02:24:31.263Z,23.10
2018-08-24T02:26:59.896Z,24.70
2018-08-24T02:29:28.556Z,26.10
2018-08-24T02:31:57.207Z,25.70
2018-08-24T02:34:25.863Z,26.70
2018-08-24T02:36:54.498Z,25.20
2018-08-24T02:39:23.168Z,24.03
2018-08-24T02:41:51.825Z,24.47
2018-08-24T02:44:20.484Z,26.47
2018-08-24T02:46:49.125Z,25.53
2018-08-24T02:49:17.794Z,24.23
2018-08-24T02:51:46.460Z,25.67
2018-08-24T02:54:15.124Z,25.43
2018-08-24T02:56:43.885Z,24.90
2018-08-24T02:59:12.595Z,25.00
2018-08-24T03:01:41.234Z,24.50
2018-08-24T03:04:09.908Z,23.50
2018-08-24T03:06:38.543Z,24.20
2018-08-24T03:09:09.827Z,23.93
2018-08-24T03:11:38.470Z,24.03
2018-08-24T03:14:07.178Z,23.30
2018-08-24T03:16:35.877Z,22.53
2018-08-24T03:19:04.588Z,23.60
2018-08-24T03:21:33.245Z,23.90
2018-08-24T03:24:01.905Z,23.90
2018-08-24T03:26:30.550Z,23.43
2018-08-24T03:28:59.221Z,23.33
2018-08-24T03:31:27.857Z,22.13
2018-08-24T03:33:56.496Z,23.20
2018-08-24T03:36:25.151Z,22.50
2018-08-24T03:38:53.782Z,23.20
2018-08-24T03:41:22.440Z,22.97
2018-08-24T03:43:51.074Z,24.33
2018-08-24T03:46:19.731Z,24.00
2018-08-24T03:48:48.389Z,22.77
2018-08-24T03:51:17.052Z,23.13
2018-08-24T03:53:45.693Z,22.17
2018-08-24T03:56:14.361Z,24.00
2018-08-24T03:58:43.007Z,23.47
2018-08-24T04:01:11.688Z,23.97
2018-08-24T04:03:40.343Z,23.83
2018-08-24T04:06:09.001Z,23.70
2018-08-24T04:08:37.654Z,25.40
2018-08-24T04:11:06.483Z,23.80
2018-08-24T04:13:35.128Z,24.47
2018-08-24T04:16:03.799Z,22.73
2018-08-24T04:18:32.458Z,24.60
2018-08-24T04:21:01.150Z,24.27
2018-08-24T04:23:29.784Z,24.37
2018-08-24T04:25:58.482Z,24.00
2018-08-24T04:28:27.127Z,25.33
2018-08-24T04:30:55.795Z,23.30
2018-08-24T04:33:24.436Z,23.60
2018-08-24T04:35:53.090Z,22.13
2018-08-24T04:38:21.731Z,23.50
2018-08-24T04:40:50.392Z,22.90
2018-08-24T04:43:19.036Z,22.47
2018-08-24T04:45:47.692Z,21.73
2018-08-24T04:48:16.330Z,21.47
2018-08-24T04:50:44.999Z,21.87
2018-08-24T04:53:13.680Z,22.20
2018-08-24T04:55:42.347Z,21.17
2018-08-24T04:58:11.006Z,22.27
2018-08-24T05:00:39.676Z,20.47
2018-08-24T05:03:08.371Z,20.17
2018-08-24T05:05:37.074Z,19.90
2018-08-24T05:08:05.699Z,20.67
2018-08-24T05:10:34.298Z,19.93
2018-08-24T05:13:02.932Z,20.30
2018-08-24T05:15:31.600Z,21.70
2018-08-24T05:18:00.245Z,21.23
2018-08-24T05:20:28.920Z,20.47
2018-08-24T05:22:57.460Z,20.70
2018-08-24T05:25:26.007Z,20.00
2018-08-24T05:27:54.661Z,20.70
2018-08-24T05:30:23.343Z,20.83
2018-08-24T05:32:51.978Z,20.80
2018-08-24T05:35:20.528Z,20.63
2018-08-24T05:37:49.041Z,21.60
2018-08-24T05:40:17.725Z,21.07
2018-08-24T05:42:46.387Z,20.17
2018-08-24T05:45:15.033Z,20.93
2018-08-24T05:47:43.708Z,20.70
2018-08-24T05:50:12.355Z,20.43
2018-08-24T05:52:41.009Z,20.80
2018-08-24T05:55:09.671Z,18.50
2018-08-24T05:57:38.343Z,20.47
2018-08-24T06:00:07.096Z,19.20
2018-08-24T06:02:35.817Z,19.80
2018-08-24T06:05:04.480Z,20.30
2018-08-24T06:07:33.146Z,20.77
2018-08-24T06:10:01.787Z,16.53
2018-08-24T06:12:30.456Z,19.50
2018-08-24T06:14:59.120Z,19.87
2018-08-24T06:17:32.940Z,19.43
2018-08-24T06:20:01.593Z,19.50
2018-08-24T06:22:30.292Z,14.67
2018-08-24T06:24:58.940Z,10.90
2018-08-24T06:27:27.636Z,7.10
2018-08-24T06:29:56.285Z,6.80
2018-08-24T06:32:25.023Z,5.97
2018-08-24T06:34:53.733Z,5.00
2018-08-24T06:37:22.439Z,5.00
2018-08-24T06:39:51.095Z,3.93
2018-08-24T06:42:19.751Z,3.97
2018-08-24T06:44:48.451Z,3.43
2018-08-24T06:47:17.171Z,3.77
2018-08-24T06:49:45.789Z,4.03
2018-08-24T06:52:14.463Z,3.83
2018-08-24T06:54:46.807Z,3.60
2018-08-24T06:57:15.587Z,4.30
2018-08-24T06:59:44.345Z,3.63
2018-08-24T07:02:13.044Z,3.93
2018-08-24T07:04:41.696Z,3.73
2018-08-24T07:07:10.381Z,4.53
2018-08-24T07:09:39.769Z,4.60
2018-08-24T07:12:10.704Z,4.20
2018-08-24T07:14:43.433Z,3.77
2018-08-24T07:17:12.103Z,2.87
2018-08-24T07:19:40.749Z,3.80
2018-08-24T07:22:09.440Z,3.70
2018-08-24T07:24:38.083Z,3.17
2018-08-24T07:27:06.752Z,3.20
2018-08-24T07:29:35.387Z,3.03
2018-08-24T07:32:04.322Z,2.37
2018-08-24T07:34:32.969Z,2.30
2018-08-24T07:37:01.646Z,2.63
2018-08-24T07:39:30.303Z,2.50
2018-08-24T07:41:59.074Z,1.90
2018-08-24T07:44:27.657Z,2.33
2018-08-24T07:46:56.340Z,2.13
2018-08-24T07:49:24.971Z,1.73
2018-08-24T07:51:53.656Z,2.00
2018-08-24T07:54:22.299Z,1.90
2018-08-24T07:56:50.953Z,2.10
2018-08-24T07:59:19.719Z,2.20
2018-08-24T08:01:48.401Z,1.80
2018-08-24T08:04:17.078Z,1.80
2018-08-24T08:06:45.746Z,2.13
2018-08-24T08:09:14.414Z,1.93
2018-08-24T08:11:43.055Z,1.60
2018-08-24T08:14:11.721Z,2.00
2018-08-24T08:16:40.374Z,1.70
2018-08-24T08:19:09.040Z,1.70
2018-08-24T08:21:37.705Z,1.90
2018-08-24T08:24:06.532Z,1.63
2018-08-24T08:26:35.198Z,2.00
2018-08-24T08:29:03.978Z,1.67
2018-08-24T08:31:32.615Z,1.80
2018-08-24T08:34:01.538Z,2.13
2018-08-24T08:36:30.174Z,2.10
2018-08-24T08:38:58.907Z,2.20
2018-08-24T08:41:27.551Z,1.70
2018-08-24T08:43:56.204Z,2.10
2018-08-24T08:46:24.846Z,2.10
2018-08-24T08:48:53.501Z,1.87
2018-08-24T08:51:22.192Z,2.50
2018-08-24T08:53:50.866Z,2.63
2018-08-24T08:56:19.578Z,2.70
2018-08-24T08:58:48.283Z,2.00
2018-08-24T09:01:16.912Z,2.70
2018-08-24T09:03:45.581Z,2.47
2018-08-24T09:06:14.347Z,2.70
2018-08-24T09:08:42.973Z,2.50
2018-08-24T09:11:11.618Z,2.43
2018-08-24T09:13:40.280Z,2.70
2018-08-24T09:16:08.922Z,3.00
2018-08-24T09:18:42.819Z,2.90
2018-08-24T09:21:16.756Z,3.27
2018-08-24T09:23:50.647Z,3.43
2018-08-24T09:27:23.035Z,4.13
2018-08-24T09:29:51.718Z,3.50
2018-08-24T09:32:20.479Z,4.20
2018-08-24T09:34:49.160Z,3.90
2018-08-24T09:37:23.018Z,3.87
2018-08-24T09:39:51.680Z,3.87
2018-08-24T09:42:20.328Z,4.27
2018-08-24T09:44:48.995Z,4.17
2018-08-24T09:47:22.903Z,4.50
2018-08-24T09:49:51.576Z,4.20
2018-08-24T09:52:25.268Z,4.13
2018-08-24T09:54:53.938Z,4.37
2018-08-24T09:57:22.588Z,4.27
2018-08-24T09:59:51.253Z,4.63
2018-08-24T10:02:24.880Z,4.57
2018-08-24T10:04:58.828Z,4.80
2018-08-24T10:07:32.652Z,4.70
2018-08-24T10:10:01.935Z,4.77
2018-08-24T10:12:35.602Z,5.27
2018-08-24T10:15:05.665Z,4.93
2018-08-24T10:17:34.306Z,4.57
2018-08-24T10:20:03.011Z,4.20
2018-08-24T10:22:32.316Z,5.30
2018-08-24T10:25:01.039Z,5.47
2018-08-24T10:27:29.672Z,5.20
2018-08-24T10:29:58.321Z,5.50
2018-08-24T10:32:26.935Z,5.43
2018-08-24T10:34:55.582Z,5.37
2018-08-24T10:37:24.199Z,5.80
2018-08-24T10:39:52.864Z,5.50
2018-08-24T10:42:21.485Z,5.50
2018-08-24T10:44:50.140Z,5.53
2018-08-24T10:47:18.828Z,5.87
2018-08-24T10:49:47.496Z,5.40
2018-08-24T10:52:16.132Z,5.90
2018-08-24T10:54:44.788Z,5.53
2018-08-24T10:57:13.448Z,6.20
2018-08-24T10:59:42.135Z,5.53
2018-08-24T11:02:10.884Z,5.47
2018-08-24T11:04:39.464Z,5.57
2018-08-24T11:07:08.150Z,5.07
2018-08-24T11:09:36.879Z,5.50
2018-08-24T11:12:05.543Z,6.00
2018-08-24T11:14:34.173Z,6.10
2018-08-24T11:17:02.857Z,5.93
2018-08-24T11:19:31.500Z,6.30
2018-08-24T11:22:00.164Z,6.37
2018-08-24T11:24:28.789Z,6.03
2018-08-24T11:26:57.516Z,6.10
2018-08-24T11:29:26.265Z,6.67
2018-08-24T11:31:54.819Z,5.87
2018-08-24T11:34:23.451Z,6.10
2018-08-24T11:36:52.090Z,5.53
2018-08-24T11:39:20.707Z,5.87
2018-08-24T11:41:49.420Z,6.03
2018-08-24T11:44:18.026Z,5.70
2018-08-24T11:46:46.676Z,6.20
2018-08-24T11:49:15.302Z,5.57
2018-08-24T11:51:43.951Z,5.73
2018-08-24T11:54:12.668Z,5.50
2018-08-24T11:56:41.326Z,6.10
2018-08-24T11:59:09.958Z,5.97
2018-08-24T12:01:38.627Z,6.00
2018-08-24T12:04:07.242Z,6.10
2018-08-24T12:06:35.893Z,6.03
2018-08-24T12:09:06.372Z,6.70
2018-08-24T12:11:35.029Z,5.70
2018-08-24T12:14:03.793Z,5.90
2018-08-24T12:16:32.480Z,5.47
2018-08-24T12:19:01.135Z,5.70
2018-08-24T12:21:30.692Z,5.40
2018-08-24T12:23:59.334Z,4.93
2018-08-24T12:26:27.988Z,4.70
2018-08-24T12:28:56.634Z,5.17
2018-08-24T12:31:25.271Z,5.27
2018-08-24T12:33:53.925Z,5.70
2018-08-24T12:36:22.572Z,5.23
2018-08-24T12:38:51.205Z,5.50
2018-08-24T12:41:19.937Z,5.67
2018-08-24T12:43:48.539Z,6.07
2018-08-24T12:46:17.246Z,6.07
2018-08-24T12:48:45.864Z,5.70
2018-08-24T12:51:14.518Z,6.17
2018-08-24T12:53:43.149Z,5.17
2018-08-24T12:56:17.371Z,5.50
2018-08-24T12:58:46.026Z,5.13
2018-08-24T13:01:14.677Z,5.30
2018-08-24T13:03:43.592Z,5.17
2018-08-24T13:06:12.557Z,5.47
2018-08-24T13:08:41.713Z,5.00
2018-08-24T13:11:10.433Z,4.70
2018-08-24T13:13:39.100Z,4.27
2018-08-24T13:16:07.893Z,4.83
2018-08-24T13:18:36.592Z,4.40
2018-08-24T13:21:05.607Z,4.47
2018-08-24T13:23:34.470Z,4.90
2018-08-24T13:26:03.107Z,4.13
2018-08-24T13:28:31.748Z,3.80
2018-08-24T13:31:00.425Z,3.13
2018-08-24T13:33:29.064Z,3.47
2018-08-24T13:35:57.711Z,3.13
2018-08-24T13:38:26.353Z,3.20
2018-08-24T13:40:54.995Z,3.23
2018-08-24T13:43:23.648Z,3.40
2018-08-24T13:45:52.277Z,3.30
2018-08-24T13:48:20.925Z,2.83
2018-08-24T13:50:49.717Z,3.73
2018-08-24T13:53:18.443Z,3.60
2018-08-24T13:55:47.326Z,4.20
2018-08-24T13:58:16.021Z,4.13
2018-08-24T14:00:44.684Z,3.73
2018-08-24T14:03:13.367Z,3.60
2018-08-24T14:05:41.998Z,3.60
2018-08-24T14:08:10.645Z,3.73
2018-08-24T14:10:39.279Z,3.63
2018-08-24T14:13:07.966Z,3.50
2018-08-24T14:15:36.557Z,3.87
2018-08-24T14:18:05.212Z,3.13
2018-08-24T14:20:33.844Z,3.40
2018-08-24T14:23:02.567Z,3.87
2018-08-24T14:25:31.253Z,3.03
2018-08-24T14:27:59.872Z,3.13
2018-08-24T14:30:28.510Z,3.10
2018-08-24T14:32:57.171Z,2.80
2018-08-24T14:35:25.791Z,2.23
2018-08-24T14:37:54.428Z,2.53
2018-08-24T14:40:23.050Z,1.93
2018-08-24T14:42:51.703Z,2.00
2018-08-24T14:45:20.342Z,1.67
2018-08-24T14:47:48.993Z,1.57
2018-08-24T14:50:17.634Z,1.60
2018-08-24T14:52:46.276Z,1.67
2018-08-24T14:55:14.917Z,1.40
2018-08-24T14:57:43.580Z,1.40
2018-08-24T15:00:12.210Z,1.50
2018-08-24T15:02:40.864Z,1.33
2018-08-24T15:05:11.384Z,1.33
2018-08-24T15:07:40.159Z,1.50
2018-08-24T15:10:09.389Z,1.07
2018-08-24T15:12:38.149Z,1.37
2018-08-24T15:15:07.150Z,1.30
2018-08-24T15:17:35.824Z,1.10
2018-08-24T15:20:05.020Z,1.60
2018-08-24T15:22:34.196Z,1.47
2018-08-24T15:25:02.825Z,1.90
2018-08-24T15:27:31.489Z,1.50
2018-08-24T15:30:00.144Z,1.57
2018-08-24T15:32:28.809Z,1.40
2018-08-24T15:34:57.468Z,1.40
2018-08-24T15:37:26.115Z,1.60
2018-08-24T15:39:54.776Z,1.30
2018-08-24T15:42:23.408Z,1.40
2018-08-24T15:44:52.056Z,1.10
2018-08-24T15:47:20.693Z,1.40
2018-08-24T15:49:49.359Z,1.50
2018-08-24T15:52:18.005Z,1.40
2018-08-24T15:54:46.783Z,0.90
2018-08-24T15:57:15.365Z,1.13
2018-08-24T15:59:44.015Z,1.43
2018-08-24T16:02:12.635Z,1.10
2018-08-24T16:04:41.293Z,1.00
2018-08-24T16:07:09.951Z,1.40
2018-08-24T16:09:40.128Z,1.37
2018-08-24T16:12:08.867Z,1.10
2018-08-24T16:14:37.505Z,1.47
2018-08-24T16:17:06.156Z,1.23
2018-08-24T16:19:34.825Z,1.30
2018-08-24T16:22:03.523Z,1.30
2018-08-24T16:24:32.216Z,1.30
2018-08-24T16:27:00.888Z,1.63
2018-08-24T16:29:29.563Z,1.20
2018-08-24T16:31:58.273Z,1.10
2018-08-24T16:34:26.993Z,1.17
2018-08-24T16:36:55.677Z,1.10
2018-08-24T16:39:24.351Z,1.20
2018-08-24T16:41:52.992Z,1.50
2018-08-24T16:44:21.667Z,1.10
2018-08-24T16:46:53.767Z,1.20
2018-08-24T16:49:22.430Z,1.20
2018-08-24T16:51:51.079Z,1.40
2018-08-24T16:54:19.748Z,1.47
2018-08-24T16:56:48.398Z,1.37
2018-08-24T16:59:17.079Z,1.23
2018-08-24T17:01:45.738Z,1.20
2018-08-24T17:04:14.393Z,1.20
2018-08-24T17:06:43.065Z,1.33
2018-08-24T17:09:13.104Z,1.30
2018-08-24T17:11:41.779Z,1.07
2018-08-24T17:14:10.424Z,1.10
2018-08-24T17:16:39.084Z,1.10
2018-08-24T17:19:07.727Z,1.30
2018-08-24T17:21:36.401Z,1.43
2018-08-24T17:24:05.052Z,1.33
2018-08-24T17:26:33.734Z,4.00
2018-08-24T17:29:02.387Z,1.30
2018-08-24T17:31:31.064Z,1.20
2018-08-24T17:33:59.697Z,1.30
2018-08-24T17:36:28.359Z,1.40
2018-08-24T17:38:56.983Z,1.30
2018-08-24T17:41:25.636Z,1.63
2018-08-24T17:43:54.287Z,1.33
2018-08-24T17:46:22.940Z,1.47
2018-08-24T17:48:51.567Z,1.43
2018-08-24T17:51:20.238Z,1.13
2018-08-24T17:53:48.871Z,1.50
2018-08-24T17:56:17.522Z,1.60
2018-08-24T17:58:46.155Z,1.50
2018-08-24T18:01:14.810Z,2.13
2018-08-24T18:03:43.460Z,1.83
2018-08-24T18:06:12.082Z,1.90
2018-08-24T18:08:40.770Z,1.47
2018-08-24T18:11:09.387Z,1.37
2018-08-24T18:13:38.032Z,1.20
2018-08-24T18:16:06.666Z,1.70
2018-08-24T18:18:35.327Z,1.53
2018-08-24T18:21:04.006Z,1.50
2018-08-24T18:23:32.650Z,1.40
2018-08-24T18:26:01.271Z,1.43
2018-08-24T18:28:29.915Z,1.90
2018-08-24T18:30:58.547Z,1.90
2018-08-24T18:33:27.192Z,1.80
2018-08-24T18:35:55.839Z,1.50
2018-08-24T18:38:24.588Z,1.60
2018-08-24T18:40:53.243Z,1.63
2018-08-24T18:43:21.906Z,1.30
2018-08-24T18:45:50.560Z,1.40
2018-08-24T18:48:19.215Z,1.17
2018-08-24T18:50:47.924Z,1.20
2018-08-24T18:53:16.547Z,1.40
2018-08-24T18:55:45.172Z,1.50
2018-08-24T18:58:13.831Z,1.80
2018-08-24T19:00:42.460Z,1.93
2018-08-24T19:03:11.118Z,1.93
2018-08-24T19:05:39.746Z,1.47
2018-08-24T19:08:12.816Z,1.60
2018-08-24T19:10:46.770Z,1.53
2018-08-24T19:13:16.673Z,1.40
2018-08-24T19:15:46.471Z,1.20
2018-08-24T19:18:20.452Z,2.07
2018-08-24T19:20:54.350Z,1.53
2018-08-24T19:23:23.015Z,1.70
2018-08-24T19:25:51.675Z,1.57
2018-08-24T19:28:25.491Z,1.53
2018-08-24T19:30:54.124Z,1.50
2018-08-24T19:33:22.789Z,1.50
2018-08-24T19:35:51.430Z,1.83
2018-08-24T19:38:20.067Z,1.57
2018-08-24T19:40:53.868Z,1.40
2018-08-24T19:43:22.522Z,1.40
2018-08-24T19:45:51.145Z,1.30
2018-08-24T19:48:25.130Z,1.70
2018-08-24T19:50:53.735Z,1.40
2018-08-24T19:53:22.385Z,1.53
2018-08-24T19:55:51.017Z,1.50
2018-08-24T19:58:24.955Z,1.53
2018-08-24T20:00:53.601Z,1.40
2018-08-24T20:03:22.273Z,1.70
2018-08-24T20:05:56.168Z,1.67
2018-08-24T20:08:29.934Z,1.50
2018-08-24T20:10:58.544Z,1.70
2018-08-24T20:13:27.252Z,1.33
2018-08-24T20:16:01.016Z,1.63
2018-08-24T20:18:29.679Z,1.83
2018-08-24T20:20:58.367Z,1.30
2018-08-24T20:23:27.048Z,1.43
2018-08-24T20:25:55.723Z,2.47
2018-08-24T20:28:24.371Z,1.50
2018-08-24T20:30:53.034Z,1.63
2018-08-24T20:33:21.852Z,1.57
2018-08-24T20:35:50.507Z,1.50
2018-08-24T20:38:19.139Z,1.60
2018-08-24T20:40:47.783Z,1.70
2018-08-24T20:43:16.423Z,1.53
2018-08-24T20:45:45.084Z,1.70
2018-08-24T20:48:13.729Z,1.73
2018-08-24T20:50:42.460Z,1.40
2018-08-24T20:53:11.112Z,1.87
2018-08-24T20:55:39.833Z,1.97
2018-08-24T20:58:08.472Z,1.70
2018-08-24T21:00:37.139Z,1.63
2018-08-24T21:03:05.934Z,2.00
2018-08-24T21:05:34.625Z,1.90
2018-08-24T21:08:03.250Z,1.63
2018-08-24T21:10:31.906Z,1.67
2018-08-24T21:13:00.542Z,1.90
2018-08-24T21:15:29.190Z,1.47
2018-08-24T21:17:57.872Z,1.90
2018-08-24T21:20:26.566Z,2.20
2018-08-24T21:22:55.225Z,1.90
2018-08-24T21:25:23.888Z,1.37
2018-08-24T21:27:52.761Z,1.60
2018-08-24T21:30:21.566Z,1.80
2018-08-24T21:32:50.177Z,1.50
2018-08-24T21:35:18.855Z,1.90
2018-08-24T21:37:47.490Z,1.60
2018-08-24T21:40:16.155Z,2.40
2018-08-24T21:42:44.788Z,1.93
2018-08-24T21:45:13.449Z,2.10
2018-08-24T21:47:42.091Z,1.60
2018-08-24T21:50:10.757Z,1.73
2018-08-24T21:52:39.408Z,1.80
2018-08-24T21:55:08.099Z,1.70
2018-08-24T21:57:36.830Z,1.90
2018-08-24T22:00:08.536Z,1.90
2018-08-24T22:02:37.178Z,1.93
2018-08-24T22:05:05.903Z,1.83
2018-08-24T22:07:34.536Z,1.50
2018-08-24T22:10:03.190Z,1.83
2018-08-24T22:12:31.849Z,1.60
2018-08-24T22:15:00.554Z,1.80
2018-08-24T22:17:29.191Z,2.53
2018-08-24T22:19:57.827Z,2.00
2018-08-24T22:22:26.513Z,2.03
2018-08-24T22:24:55.228Z,1.90
2018-08-24T22:27:23.944Z,1.70
2018-08-24T22:29:52.584Z,2.63
2018-08-24T22:32:21.288Z,1.90
2018-08-24T22:34:49.924Z,1.77
2018-08-24T22:37:18.591Z,2.00
2018-08-24T22:39:47.277Z,2.13
2018-08-24T22:42:15.982Z,2.03
2018-08-24T22:44:44.625Z,2.10
2018-08-24T22:47:13.310Z,2.00
2018-08-24T22:49:41.939Z,2.13
2018-08-24T22:52:10.591Z,2.00
2018-08-24T22:54:39.224Z,2.03
2018-08-24T22:57:07.950Z,2.47
2018-08-24T22:59:36.653Z,2.50
2018-08-24T23:02:05.329Z,1.80
2018-08-24T23:04:33.973Z,2.50
2018-08-24T23:07:02.637Z,2.20
2018-08-24T23:09:31.284Z,2.00
2018-08-24T23:11:59.950Z,1.97
2018-08-24T23:14:28.588Z,2.07
2018-08-24T23:16:57.273Z,2.07
2018-08-24T23:19:25.975Z,2.00
2018-08-24T23:21:54.628Z,2.17
2018-08-24T23:24:23.242Z,2.20
2018-08-24T23:26:51.880Z,2.20
2018-08-24T23:29:20.503Z,2.40
2018-08-24T23:31:49.155Z,2.07
2018-08-24T23:34:17.795Z,2.20
2018-08-24T23:36:46.424Z,2.23
2018-08-24T23:39:15.070Z,2.20
2018-08-24T23:41:43.738Z,2.30
2018-08-24T23:44:12.433Z,2.30
2018-08-24T23:46:41.099Z,1.97
2018-08-24T23:49:09.735Z,2.40
2018-08-24T23:51:38.362Z,2.10
2018-08-24T23:54:07.044Z,2.43
2018-08-24T23:56:35.677Z,2.50
2018-08-24T23:59:04.342Z,2.40
